Time;durP1;ratioP1;P1;durP2;ratioP2;P2;SDS_P1;SDS_P2;PMS_P1;PMS_P2;Temp;Humidity;BMP_temperature;BMP_pressure;BME280_temperature;BME280_humidity;BME280_pressure;Samples;Min_cycle;Max_cycle;Signal;HPM_P1;HPM_P2
2023/07/03 00:00:01;;;;;;;6.47;5.45;;;26.40;41.90;;;;;;4979168;28;20038;-65
2023/07/03 00:02:26;;;;;;;7.35;5.70;;;26.40;41.80;;;;;;4977152;28;20055;-65
2023/07/03 00:04:52;;;;;;;6.07;5.22;;;26.40;41.90;;;;;;4962706;28;20031;-65
2023/07/03 00:07:17;;;;;;;5.95;5.20;;;26.30;41.90;;;;;;4978273;28;20027;-64
2023/07/03 00:09:44;;;;;;;6.15;5.40;;;26.30;41.90;;;;;;4977463;28;20031;-65
2023/07/03 00:12:11;;;;;;;5.93;5.03;;;26.30;41.90;;;;;;4980448;28;20038;-64
2023/07/03 00:14:38;;;;;;;6.28;5.30;;;26.30;41.90;;;;;;4978456;28;20113;-64
2023/07/03 00:17:07;;;;;;;5.97;5.18;;;26.30;42.00;;;;;;4979085;28;20033;-65
2023/07/03 00:19:33;;;;;;;6.47;5.40;;;26.30;42.00;;;;;;4963135;28;20593;-64
2023/07/03 00:22:01;;;;;;;6.40;5.03;;;26.30;42.00;;;;;;4983436;28;20027;-65
2023/07/03 00:24:29;;;;;;;5.80;5.20;;;26.30;42.00;;;;;;4982459;28;20042;-65
2023/07/03 00:26:55;;;;;;;6.18;5.20;;;26.30;42.00;;;;;;4982564;28;20039;-64
2023/07/03 00:29:21;;;;;;;6.72;5.70;;;26.30;42.00;;;;;;4982155;28;20053;-65
2023/07/03 00:31:47;;;;;;;5.95;5.10;;;26.30;42.00;;;;;;4980157;28;20482;-65
2023/07/03 00:34:12;;;;;;;6.38;5.22;;;26.30;42.10;;;;;;4981968;28;20089;-65
2023/07/03 00:36:38;;;;;;;6.40;5.30;;;26.30;42.10;;;;;;4981306;28;20030;-65
2023/07/03 00:39:04;;;;;;;6.40;5.32;;;26.30;42.10;;;;;;4983096;28;20412;-64
2023/07/03 00:41:30;;;;;;;6.25;5.30;;;26.30;42.10;;;;;;4984282;28;20125;-64
2023/07/03 00:43:56;;;;;;;5.85;5.18;;;26.30;42.20;;;;;;4980092;28;20037;-64
2023/07/03 00:46:22;;;;;;;5.95;4.97;;;26.30;42.20;;;;;;4965661;28;20464;-65
2023/07/03 00:48:47;;;;;;;6.18;5.32;;;26.30;42.20;;;;;;4981962;28;20073;-65
2023/07/03 00:51:14;;;;;;;6.00;4.85;;;26.20;42.20;;;;;;4982683;28;20030;-65
2023/07/03 00:53:40;;;;;;;6.18;4.95;;;26.20;42.20;;;;;;4984270;28;20038;-65
2023/07/03 00:56:06;;;;;;;5.55;4.70;;;26.20;42.20;;;;;;4979737;28;20023;-64
2023/07/03 00:58:33;;;;;;;5.70;5.10;;;26.20;42.20;;;;;;4982770;28;20018;-64
2023/07/03 01:01:15;;;;;;;6.25;5.15;;;26.20;42.30;;;;;;4981222;28;20022;-64
2023/07/03 01:03:48;;;;;;;5.82;5.18;;;26.20;42.20;;;;;;4980154;28;20026;-65
2023/07/03 01:06:19;;;;;;;6.15;4.95;;;26.20;42.30;;;;;;4965500;28;20398;-64
2023/07/03 01:08:59;;;;;;;7.07;5.57;;;26.20;42.30;;;;;;4982398;28;20030;-65
2023/07/03 01:11:26;;;;;;;5.72;4.88;;;26.20;42.30;;;;;;4980170;28;20450;-65
2023/07/03 01:13:55;;;;;;;5.70;4.85;;;26.20;42.30;;;;;;4980230;28;20065;-64
2023/07/03 01:16:22;;;;;;;6.22;5.22;;;26.20;42.30;;;;;;4963739;28;20034;-65
2023/07/03 01:18:50;;;;;;;5.95;5.05;;;26.10;42.30;;;;;;4981212;28;20121;-64
2023/07/03 01:21:23;;;;;;;5.82;4.97;;;26.20;42.40;;;;;;4978884;28;20042;-64
2023/07/03 01:24:00;;;;;;;5.80;5.05;;;26.10;42.30;;;;;;4965973;28;20022;-65
2023/07/03 01:26:27;;;;;;;5.20;4.53;;;26.10;42.40;;;;;;4981441;28;20055;-65
2023/07/03 01:28:59;;;;;;;5.35;4.55;;;26.10;42.90;;;;;;4979378;28;20391;-64
2023/07/03 01:31:26;;;;;;;5.88;5.07;;;26.10;42.40;;;;;;4980612;28;20090;-64
2023/07/03 01:33:55;;;;;;;6.15;4.82;;;26.10;42.40;;;;;;4977759;28;20491;-64
2023/07/03 01:36:22;;;;;;;6.20;5.30;;;26.10;42.40;;;;;;4981508;28;20117;-65
2023/07/03 01:38:49;;;;;;;6.22;4.97;;;26.10;42.40;;;;;;4981245;28;20054;-64
2023/07/03 01:41:17;;;;;;;5.80;5.15;;;26.10;42.40;;;;;;4970483;28;20076;-64
2023/07/03 01:43:45;;;;;;;6.28;4.90;;;26.10;42.40;;;;;;4979966;28;20102;-65
2023/07/03 01:46:11;;;;;;;5.78;4.80;;;26.10;42.50;;;;;;4981296;28;20034;-65
2023/07/03 01:48:36;;;;;;;5.85;4.97;;;26.10;42.50;;;;;;4979178;28;20456;-64
2023/07/03 01:51:04;;;;;;;5.30;4.80;;;26.00;42.40;;;;;;4982390;28;20876;-64
2023/07/03 01:53:43;;;;;;;6.30;5.13;;;26.10;42.50;;;;;;4979589;28;20023;-64
2023/07/03 01:56:26;;;;;;;6.07;5.00;;;26.00;42.50;;;;;;4982027;28;20073;-65
2023/07/03 01:59:08;;;;;;;5.35;4.72;;;26.00;42.50;;;;;;4980079;28;20023;-65
2023/07/03 02:01:47;;;;;;;5.78;4.70;;;26.10;42.60;;;;;;4981168;28;20360;-65
2023/07/03 02:04:24;;;;;;;5.20;4.65;;;26.00;42.50;;;;;;4965103;28;20450;-64
2023/07/03 02:06:51;;;;;;;6.05;5.03;;;26.00;42.60;;;;;;4979752;28;20170;-65
2023/07/03 02:09:18;;;;;;;5.50;4.90;;;26.00;42.50;;;;;;4983074;28;20031;-65
2023/07/03 02:11:46;;;;;;;5.32;4.65;;;26.00;42.60;;;;;;4979004;28;20038;-63
2023/07/03 02:14:12;;;;;;;5.80;4.80;;;26.00;42.60;;;;;;4980040;28;20121;-64
2023/07/03 02:16:41;;;;;;;5.60;4.72;;;26.00;42.60;;;;;;4964031;28;20487;-64
2023/07/03 02:19:08;;;;;;;5.60;4.63;;;26.00;42.60;;;;;;4978462;28;20097;-64
2023/07/03 02:21:38;;;;;;;6.20;5.18;;;26.00;42.60;;;;;;4962544;28;20463;-64
2023/07/03 02:24:04;;;;;;;5.70;5.10;;;26.00;42.60;;;;;;4980978;28;20030;-65
2023/07/03 02:26:29;;;;;;;5.97;5.00;;;26.00;42.60;;;;;;4979905;28;20031;-64
2023/07/03 02:28:55;;;;;;;5.63;5.03;;;25.90;42.60;;;;;;4980491;28;20039;-64
2023/07/03 02:31:20;;;;;;;5.35;4.53;;;26.00;42.70;;;;;;4980741;28;20519;-65
2023/07/03 02:33:46;;;;;;;5.93;4.82;;;25.90;42.60;;;;;;4979089;28;20030;-65
2023/07/03 02:36:12;;;;;;;5.57;4.93;;;25.90;42.60;;;;;;4979368;28;20108;-64
2023/07/03 02:38:38;;;;;;;5.38;4.53;;;25.90;42.60;;;;;;4980084;28;20424;-65
2023/07/03 02:41:04;;;;;;;6.05;4.45;;;25.90;42.70;;;;;;4979892;28;20093;-64
2023/07/03 02:43:30;;;;;;;5.72;4.80;;;25.90;42.70;;;;;;4980246;28;20387;-65
2023/07/03 02:46:03;;;;;;;5.32;4.38;;;25.90;42.70;;;;;;4980378;28;20053;-64
2023/07/03 02:48:28;;;;;;;5.20;4.40;;;25.90;42.70;;;;;;4978999;28;20363;-65
2023/07/03 02:50:54;;;;;;;5.50;4.90;;;25.90;42.70;;;;;;4980603;28;20034;-64
2023/07/03 02:53:19;;;;;;;5.50;4.60;;;25.90;42.70;;;;;;4979256;28;20482;-64
2023/07/03 02:55:48;;;;;;;5.20;4.60;;;25.90;42.80;;;;;;4970442;28;20131;-65
2023/07/03 02:58:14;;;;;;;5.05;4.28;;;25.90;42.80;;;;;;4980700;28;20478;-65
2023/07/03 03:00:41;;;;;;;5.28;4.35;;;25.90;42.80;;;;;;4979457;28;20033;-64
2023/07/03 03:03:06;;;;;;;5.50;4.50;;;25.90;42.80;;;;;;4976872;28;20117;-65
2023/07/03 03:05:32;;;;;;;5.40;4.20;;;25.90;42.80;;;;;;4965886;28;20176;-65
2023/07/03 03:07:58;;;;;;;6.80;4.78;;;25.80;42.70;;;;;;4980009;28;20053;-65
2023/07/03 03:10:25;;;;;;;4.90;4.18;;;25.90;42.80;;;;;;4981019;28;20034;-64
2023/07/03 03:12:50;;;;;;;5.65;4.53;;;25.80;42.80;;;;;;4964580;28;20030;-64
2023/07/03 03:15:17;;;;;;;5.43;4.40;;;25.80;42.80;;;;;;4979270;28;20094;-64
2023/07/03 03:17:43;;;;;;;5.32;4.47;;;25.80;43.30;;;;;;4979185;28;20039;-65
2023/07/03 03:20:10;;;;;;;6.13;4.70;;;25.80;42.80;;;;;;4979014;28;20039;-64
2023/07/03 03:22:36;;;;;;;6.07;4.80;;;25.80;42.80;;;;;;4963891;28;20034;-64
2023/07/03 03:25:02;;;;;;;6.47;4.70;;;25.80;42.80;;;;;;4979415;28;20049;-64
2023/07/03 03:27:27;;;;;;;5.00;4.38;;;25.80;43.00;;;;;;4961922;28;20091;-64
2023/07/03 03:29:53;;;;;;;5.47;4.38;;;25.80;42.90;;;;;;4978618;28;20277;-64
2023/07/03 03:32:18;;;;;;;5.32;4.32;;;25.80;42.90;;;;;;4969694;28;20136;-64
2023/07/03 03:34:44;;;;;;;5.43;4.72;;;25.80;42.90;;;;;;4977228;28;20038;-65
2023/07/03 03:37:10;;;;;;;5.47;4.63;;;25.80;42.90;;;;;;4978082;28;20049;-64
2023/07/03 03:39:36;;;;;;;5.63;5.00;;;25.80;42.90;;;;;;4981369;28;20915;-64
2023/07/03 03:42:01;;;;;;;5.57;4.28;;;25.80;43.00;;;;;;4976957;28;20038;-65
2023/07/03 03:44:27;;;;;;;5.57;4.55;;;25.80;43.00;;;;;;4979353;28;20023;-64
2023/07/03 03:46:53;;;;;;;5.50;4.40;;;25.80;43.00;;;;;;4978960;28;20460;-65
2023/07/03 03:49:19;;;;;;;5.10;4.50;;;25.80;43.00;;;;;;4976933;28;20383;-64
2023/07/03 03:51:44;;;;;;;5.05;4.22;;;25.70;42.90;;;;;;4978514;28;20037;-64
2023/07/03 03:54:10;;;;;;;5.28;4.63;;;25.70;42.90;;;;;;4979158;28;20030;-65
2023/07/03 03:56:36;;;;;;;5.75;4.85;;;25.70;43.00;;;;;;4976601;28;20034;-64
2023/07/03 03:59:02;;;;;;;5.60;4.70;;;25.70;43.00;;;;;;4977849;28;20022;-65
2023/07/03 04:01:27;;;;;;;5.28;4.15;;;25.70;43.00;;;;;;4979025;28;20546;-65
2023/07/03 04:03:53;;;;;;;4.88;4.30;;;25.70;43.00;;;;;;4976842;28;20026;-65
2023/07/03 04:06:19;;;;;;;4.88;4.32;;;25.70;43.00;;;;;;4978888;28;20069;-65
2023/07/03 04:08:45;;;;;;;5.15;4.28;;;25.70;43.00;;;;;;4962019;28;20359;-64
2023/07/03 04:11:11;;;;;;;5.00;4.13;;;25.70;43.00;;;;;;4979917;28;20046;-64
2023/07/03 04:13:36;;;;;;;4.95;4.45;;;25.70;43.00;;;;;;4978994;28;20038;-64
2023/07/03 04:16:03;;;;;;;5.43;4.75;;;25.70;43.50;;;;;;4979107;28;20041;-65
2023/07/03 04:18:30;;;;;;;5.40;4.38;;;25.70;43.10;;;;;;4977060;28;20034;-64
2023/07/03 04:20:57;;;;;;;4.90;4.18;;;25.70;43.10;;;;;;4962165;28;20019;-64
2023/07/03 04:23:24;;;;;;;5.78;4.20;;;25.70;43.10;;;;;;4964221;28;20154;-64
2023/07/03 04:25:50;;;;;;;5.47;4.35;;;25.70;43.10;;;;;;4961731;28;20031;-64
2023/07/03 04:28:18;;;;;;;5.28;4.45;;;25.70;43.10;;;;;;4978971;28;20126;-64
2023/07/03 04:30:45;;;;;;;5.10;4.13;;;25.70;43.20;;;;;;4978538;28;20124;-64
2023/07/03 04:33:11;;;;;;;5.57;4.78;;;25.70;43.20;;;;;;4959930;28;20391;-65
2023/07/03 04:35:37;;;;;;;5.30;4.32;;;25.70;43.40;;;;;;4977632;28;20045;-65
2023/07/03 04:38:06;;;;;;;7.18;4.95;;;25.70;43.30;;;;;;4978259;28;20454;-64
2023/07/03 04:40:33;;;;;;;5.50;4.47;;;25.70;43.30;;;;;;4978075;28;20474;-65
2023/07/03 04:42:58;;;;;;;6.25;4.55;;;25.70;43.30;;;;;;4977065;28;20032;-65
2023/07/03 04:45:26;;;;;;;5.15;4.53;;;25.70;43.30;;;;;;4979406;28;20524;-64
2023/07/03 04:47:52;;;;;;;5.10;4.50;;;25.70;43.30;;;;;;4976173;28;20054;-64
2023/07/03 04:50:18;;;;;;;5.70;4.93;;;25.70;43.30;;;;;;4962676;28;20054;-64
2023/07/03 04:52:46;;;;;;;5.30;4.45;;;25.70;43.30;;;;;;4976206;28;20035;-64
2023/07/03 04:55:12;;;;;;;6.03;4.30;;;25.70;43.30;;;;;;4977900;28;20072;-65
2023/07/03 04:57:38;;;;;;;5.18;4.43;;;25.60;43.20;;;;;;4978171;28;20105;-65
2023/07/03 05:00:15;;;;;;;5.75;4.68;;;25.60;43.20;;;;;;4978811;28;20037;-65
2023/07/03 05:02:46;;;;;;;5.00;4.50;;;25.70;43.30;;;;;;4981146;28;20486;-64
2023/07/03 05:05:13;;;;;;;5.38;4.65;;;25.60;43.30;;;;;;4978876;28;20077;-65
2023/07/03 05:07:39;;;;;;;5.40;4.60;;;25.60;43.30;;;;;;4979324;28;20088;-65
2023/07/03 05:10:06;;;;;;;5.78;4.72;;;25.60;43.30;;;;;;4966867;28;20053;-64
2023/07/03 05:12:32;;;;;;;5.68;4.70;;;25.60;43.30;;;;;;4981966;28;20034;-64
2023/07/03 05:14:57;;;;;;;5.78;4.60;;;25.60;43.30;;;;;;4980851;28;20870;-64
2023/07/03 05:17:23;;;;;;;5.80;4.53;;;25.60;43.40;;;;;;4982855;28;20027;-65
2023/07/03 05:19:49;;;;;;;5.25;4.30;;;25.60;43.40;;;;;;4964264;28;20098;-64
2023/07/03 05:22:15;;;;;;;6.65;4.82;;;25.60;43.40;;;;;;4963195;28;20458;-64
2023/07/03 05:24:41;;;;;;;5.80;4.85;;;25.60;43.40;;;;;;4983789;28;20192;-65
2023/07/03 05:27:07;;;;;;;6.22;5.05;;;25.60;43.50;;;;;;4982149;28;20023;-66
2023/07/03 05:29:33;;;;;;;5.60;4.85;;;25.60;43.50;;;;;;4966690;28;20035;-66
2023/07/03 05:32:02;;;;;;;5.88;4.80;;;25.60;43.50;;;;;;4983194;28;20554;-65
2023/07/03 05:34:28;;;;;;;;;;;25.60;43.50;;;;;;4979485;28;20497;-64
2023/07/03 05:36:53;;;;;;;5.75;4.85;;;25.60;43.50;;;;;;4972691;28;19978;-65
2023/07/03 05:39:22;;;;;;;5.53;4.93;;;25.70;43.50;;;;;;4982188;28;20053;-65
2023/07/03 05:41:48;;;;;;;6.93;5.65;;;25.70;43.40;;;;;;4982506;28;20058;-64
2023/07/03 05:44:13;;;;;;;6.80;5.72;;;25.70;43.40;;;;;;4964703;28;20066;-66
2023/07/03 05:46:39;;;;;;;6.60;5.53;;;25.70;43.30;;;;;;4982000;28;20030;-64
2023/07/03 05:49:04;;;;;;;6.85;5.88;;;25.80;43.40;;;;;;4979008;28;20042;-67
2023/07/03 05:51:30;;;;;;;6.32;5.60;;;25.80;43.30;;;;;;4971489;28;20033;-67
2023/07/03 05:53:56;;;;;;;6.70;5.88;;;25.80;43.30;;;;;;4981486;28;20533;-65
2023/07/03 05:56:21;;;;;;;6.93;5.78;;;25.80;43.30;;;;;;4983016;28;20027;-65
2023/07/03 05:58:47;;;;;;;6.15;5.53;;;25.80;43.30;;;;;;4980398;28;20038;-65
2023/07/03 06:01:13;;;;;;;7.07;6.03;;;25.80;43.30;;;;;;4980128;28;20089;-66
2023/07/03 06:03:42;;;;;;;6.90;5.85;;;25.90;43.30;;;;;;4979893;28;20081;-65
2023/07/03 06:06:08;;;;;;;7.22;5.65;;;25.90;43.30;;;;;;4966482;28;20027;-65
2023/07/03 06:08:34;;;;;;;6.60;5.70;;;25.90;43.30;;;;;;4965018;28;20122;-64
2023/07/03 06:11:00;;;;;;;6.10;5.45;;;25.90;43.30;;;;;;4981401;28;20042;-64
2023/07/03 06:13:25;;;;;;;6.80;5.55;;;25.90;43.30;;;;;;4981609;28;20410;-65
2023/07/03 06:15:51;;;;;;;8.23;5.70;;;25.90;43.20;;;;;;4979138;28;20348;-65
2023/07/03 06:18:17;;;;;;;7.35;5.70;;;25.90;43.70;;;;;;4979619;28;20034;-65
2023/07/03 06:20:42;;;;;;;6.53;5.82;;;25.90;43.20;;;;;;4978109;28;20493;-66
2023/07/03 06:23:08;;;;;;;7.43;5.85;;;26.00;43.20;;;;;;4978474;28;20026;-66
2023/07/03 06:25:34;;;;;;;6.28;5.38;;;26.00;43.20;;;;;;4964914;28;20049;-66
2023/07/03 06:28:00;;;;;;;7.60;5.70;;;26.00;43.20;;;;;;4980209;28;20029;-66
2023/07/03 06:30:26;;;;;;;6.35;5.60;;;26.00;43.20;;;;;;4979275;28;20042;-66
2023/07/03 06:32:51;;;;;;;6.15;5.30;;;26.00;43.20;;;;;;4980693;28;20038;-67
2023/07/03 06:35:17;;;;;;;6.90;5.95;;;26.00;43.20;;;;;;4978701;28;20030;-66
2023/07/03 06:37:43;;;;;;;6.82;5.55;;;26.00;43.20;;;;;;4978995;28;20023;-66
2023/07/03 06:40:10;;;;;;;6.95;5.90;;;26.00;43.20;;;;;;4981607;28;20042;-66
2023/07/03 06:42:39;;;;;;;7.20;6.07;;;26.00;43.10;;;;;;4965417;28;20117;-66
2023/07/03 06:45:06;;;;;;;6.72;5.80;;;26.00;43.10;;;;;;4978837;28;20022;-66
2023/07/03 06:47:31;;;;;;;6.63;5.90;;;26.00;43.10;;;;;;4980565;28;20034;-65
2023/07/03 06:49:57;;;;;;;7.43;5.78;;;26.00;43.10;;;;;;4978725;28;20054;-65
2023/07/03 06:52:22;;;;;;;6.25;5.28;;;26.10;43.70;;;;;;4979047;28;20808;-66
2023/07/03 06:54:48;;;;;;;7.05;5.72;;;26.10;43.20;;;;;;4981289;28;20100;-66
2023/07/03 06:57:14;;;;;;;6.55;5.45;;;26.10;43.10;;;;;;4981063;28;20049;-65
2023/07/03 06:59:39;;;;;;;6.57;5.68;;;26.10;43.10;;;;;;4980578;28;20123;-66
2023/07/03 07:02:06;;;;;;;6.70;5.95;;;26.10;43.10;;;;;;4980565;28;20610;-66
2023/07/03 07:04:32;;;;;;;6.90;5.70;;;26.10;43.10;;;;;;4980565;28;20027;-66
2023/07/03 07:06:58;;;;;;;6.55;5.72;;;26.20;43.10;;;;;;4977172;28;20390;-65
2023/07/03 07:09:24;;;;;;;6.00;5.15;;;26.20;43.10;;;;;;4979038;28;20027;-63
2023/07/03 07:11:50;;;;;;;7.93;5.88;;;26.20;43.10;;;;;;4980710;28;20031;-67
2023/07/03 07:14:17;;;;;;;5.90;5.03;;;26.20;43.20;;;;;;4980256;28;20971;-65
2023/07/03 07:16:43;;;;;;;5.65;4.80;;;26.20;43.30;;;;;;4965326;28;20034;-66
2023/07/03 07:19:10;;;;;;;6.18;4.93;;;26.20;43.30;;;;;;4980311;28;20059;-62
2023/07/03 07:21:38;;;;;;;7.75;5.40;;;26.10;43.20;;;;;;4979973;28;20038;-64
2023/07/03 07:24:21;;;;;;;7.55;5.70;;;26.20;43.30;;;;;;4978628;28;20494;-65
2023/07/03 07:26:50;;;;;;;7.65;5.95;;;26.20;43.30;;;;;;4978655;28;20148;-63
2023/07/03 07:29:16;;;;;;;6.68;5.38;;;26.20;43.20;;;;;;4963702;28;20404;-67
2023/07/03 07:31:42;;;;;;;5.90;5.30;;;26.20;43.20;;;;;;4977505;28;20041;-67
2023/07/03 07:34:10;;;;;;;8.43;5.65;;;26.20;43.10;;;;;;4963144;28;20487;-67
2023/07/03 07:36:38;;;;;;;6.05;4.57;;;26.20;43.10;;;;;;4977576;28;20045;-65
2023/07/03 07:39:04;;;;;;;5.80;4.70;;;26.20;43.40;;;;;;4976491;28;20045;-64
2023/07/03 07:41:31;;;;;;;5.55;4.90;;;26.20;44.00;;;;;;4971030;28;20030;-65
2023/07/03 07:43:58;;;;;;;6.05;4.82;;;26.30;43.40;;;;;;4978851;28;20114;-63
2023/07/03 07:46:26;;;;;;;6.03;4.40;;;26.30;43.50;;;;;;4978933;28;20471;-67
2023/07/03 07:48:52;;;;;;;6.25;5.40;;;26.30;43.50;;;;;;4978102;28;20055;-66
2023/07/03 07:51:20;;;;;;;7.63;5.85;;;26.30;43.50;;;;;;4977495;28;20562;-65
2023/07/03 07:53:46;;;;;;;6.50;5.70;;;26.30;43.30;;;;;;4968056;28;20042;-66
2023/07/03 07:56:11;;;;;;;6.72;6.00;;;26.30;43.30;;;;;;4978859;28;20027;-63
2023/07/03 07:58:37;;;;;;;6.90;5.40;;;26.30;43.30;;;;;;4965030;28;20482;-63
2023/07/03 08:01:03;;;;;;;5.85;4.78;;;26.30;43.40;;;;;;4960950;28;20391;-64
2023/07/03 08:03:29;;;;;;;5.82;4.82;;;26.30;43.30;;;;;;4978993;28;20035;-64
2023/07/03 08:05:59;;;;;;;5.60;4.90;;;26.30;43.30;;;;;;4977380;28;20595;-65
2023/07/03 08:08:26;;;;;;;5.25;4.40;;;26.30;43.90;;;;;;4978055;28;20022;-66
2023/07/03 08:10:56;;;;;;;5.38;4.13;;;26.40;43.60;;;;;;4977849;28;20832;-67
2023/07/03 08:13:22;;;;;;;5.70;4.50;;;26.30;43.60;;;;;;4980814;28;20502;-68
2023/07/03 08:15:49;;;;;;;6.15;5.35;;;26.30;43.60;;;;;;4977417;28;20019;-65
2023/07/03 08:18:15;;;;;;;7.03;5.80;;;26.40;43.40;;;;;;4979355;28;20050;-66
2023/07/03 08:20:42;;;;;;;6.93;5.90;;;26.40;43.40;;;;;;4959830;28;20141;-71
2023/07/03 08:23:08;;;;;;;6.65;5.55;;;26.40;43.30;;;;;;4963308;28;20093;-69
2023/07/03 08:25:33;;;;;;;6.88;5.70;;;26.40;43.10;;;;;;4969068;28;20034;-66
2023/07/03 08:27:59;;;;;;;5.95;4.90;;;26.40;43.20;;;;;;4979579;28;20502;-65
2023/07/03 08:30:25;;;;;;;7.72;5.70;;;26.40;43.50;;;;;;4974756;28;20553;-66
2023/07/03 08:32:51;;;;;;;8.27;6.20;;;26.40;44.00;;;;;;4968912;28;20031;-66
2023/07/03 08:35:17;;;;;;;7.03;5.93;;;26.50;43.80;;;;;;4974923;28;20054;-66
2023/07/03 08:37:43;;;;;;;8.70;6.53;;;26.50;44.00;;;;;;4978300;28;20063;-65
2023/07/03 08:40:10;;;;;;;8.73;6.15;;;26.50;43.80;;;;;;4975949;28;20084;-66
2023/07/03 08:42:43;;;;;;;6.20;5.18;;;26.60;43.50;;;;;;4979974;28;20034;-67
2023/07/03 08:45:13;;;;;;;7.68;5.82;;;26.60;44.10;;;;;;4981652;28;20022;-66
2023/07/03 08:47:40;;;;;;;8.07;6.00;;;26.50;43.60;;;;;;4966902;28;20073;-66
2023/07/03 08:50:07;;;;;;;7.13;5.60;;;26.60;43.70;;;;;;4983234;28;20031;-68
2023/07/03 08:52:47;;;;;;;6.70;5.47;;;26.60;43.50;;;;;;4979782;28;20474;-68
2023/07/03 08:55:18;;;;;;;6.05;5.30;;;26.60;43.40;;;;;;4982501;28;20505;-68
2023/07/03 08:57:44;;;;;;;6.82;5.80;;;26.60;43.60;;;;;;4964155;28;20436;-66
2023/07/03 09:00:11;;;;;;;7.18;5.90;;;26.70;43.60;;;;;;4982140;28;20066;-66
2023/07/03 09:02:39;;;;;;;7.28;5.78;;;26.70;43.50;;;;;;4964094;28;20050;-64
2023/07/03 09:05:36;;;;;;;6.72;5.65;;;26.70;43.60;;;;;;4979183;28;20030;-66
2023/07/03 09:08:05;;;;;;;7.05;5.40;;;26.70;43.40;;;;;;4982554;28;20371;-66
2023/07/03 09:10:34;;;;;;;;;;;26.70;43.20;;;;;;4963622;28;20031;-66
2023/07/03 09:13:15;;;;;;;6.28;5.32;;;26.70;43.20;;;;;;4964829;28;19948;-66
2023/07/03 09:15:56;;;;;;;6.03;5.07;;;26.70;43.10;;;;;;4981303;28;20490;-66
2023/07/03 09:18:28;;;;;;;6.25;5.00;;;26.70;43.30;;;;;;4981839;28;20556;-68
2023/07/03 09:20:56;;;;;;;5.88;5.10;;;26.70;43.20;;;;;;4980044;28;20026;-67
2023/07/03 09:23:28;;;;;;;6.85;5.55;;;26.70;43.20;;;;;;4980389;28;20030;-67
2023/07/03 09:26:01;;;;;;;6.95;5.43;;;26.70;43.10;;;;;;4968536;28;20165;-66
2023/07/03 09:28:28;;;;;;;6.93;5.10;;;26.80;43.00;;;;;;4981526;28;20533;-67
2023/07/03 09:30:54;;;;;;;6.88;5.35;;;26.70;43.00;;;;;;4981500;28;20030;-66
2023/07/03 09:33:20;;;;;;;6.20;4.97;;;26.80;42.90;;;;;;4966772;28;20402;-65
2023/07/03 09:35:47;;;;;;;6.57;4.82;;;26.80;42.80;;;;;;4980969;28;20180;-66
2023/07/03 09:38:20;;;;;;;6.32;5.07;;;26.80;42.80;;;;;;4980164;28;20374;-66
2023/07/03 09:40:48;;;;;;;6.30;5.35;;;26.80;42.70;;;;;;4969502;28;20548;-66
2023/07/03 09:43:25;;;;;;;6.20;5.20;;;26.90;42.70;;;;;;4980587;28;20041;-66
2023/07/03 09:46:01;;;;;;;6.70;5.50;;;26.80;42.60;;;;;;4980984;28;20022;-66
2023/07/03 09:48:30;;;;;;;7.20;5.28;;;26.90;42.50;;;;;;4981463;28;20109;-66
2023/07/03 09:50:55;;;;;;;6.22;4.82;;;26.90;42.40;;;;;;4979005;28;20046;-66
2023/07/03 09:53:24;;;;;;;6.35;4.50;;;26.90;42.40;;;;;;4979003;28;20065;-67
2023/07/03 09:55:55;;;;;;;6.05;4.45;;;26.80;42.20;;;;;;4962860;28;20030;-64
2023/07/03 09:58:24;;;;;;;7.03;5.10;;;26.90;42.40;;;;;;4981941;28;20582;-64
2023/07/03 10:00:54;;;;;;;5.45;4.07;;;26.90;42.40;;;;;;4981813;28;20030;-64
2023/07/03 10:03:29;;;;;;;6.25;5.05;;;26.90;42.40;;;;;;4962405;28;20038;-65
2023/07/03 10:05:57;;;;;;;6.22;4.55;;;26.90;42.10;;;;;;4962371;28;20122;-65
2023/07/03 10:08:27;;;;;;;6.38;4.55;;;26.90;42.20;;;;;;4980632;28;20031;-63
2023/07/03 10:10:57;;;;;;;5.47;4.63;;;26.90;42.20;;;;;;4981116;28;20477;-64
2023/07/03 10:13:24;;;;;;;5.57;4.45;;;26.90;42.10;;;;;;4980633;28;20040;-64
2023/07/03 10:15:51;;;;;;;6.78;4.72;;;26.90;42.00;;;;;;4979612;28;20041;-64
2023/07/03 10:18:34;;;;;;;6.80;4.63;;;27.00;42.00;;;;;;4981896;28;20053;-64
2023/07/03 10:21:08;;;;;;;6.22;4.82;;;26.90;41.80;;;;;;4964828;28;20398;-64
2023/07/03 10:23:37;;;;;;;6.13;4.57;;;27.00;41.90;;;;;;4980394;28;20073;-64
2023/07/03 10:26:12;;;;;;;5.90;4.72;;;26.90;41.80;;;;;;4980693;28;20030;-64
2023/07/03 10:29:09;;;;;;;6.47;4.70;;;27.00;41.90;;;;;;4983822;28;20027;-65
2023/07/03 10:32:03;;;;;;;7.22;4.95;;;27.00;41.80;;;;;;4981090;28;20038;-64
2023/07/03 10:34:38;;;;;;;6.00;4.50;;;27.00;41.70;;;;;;4980558;28;20092;-64
2023/07/03 10:37:06;;;;;;;6.18;4.50;;;27.00;41.80;;;;;;4965742;28;20023;-64
2023/07/03 10:39:44;;;;;;;6.20;4.50;;;27.00;41.80;;;;;;4977665;28;20110;-64
2023/07/03 10:42:42;;;;;;;6.57;4.72;;;26.90;41.70;;;;;;4963099;28;20085;-64
2023/07/03 10:45:14;;;;;;;5.55;4.35;;;27.00;41.70;;;;;;4974879;28;20035;-64
2023/07/03 10:47:56;;;;;;;5.45;4.53;;;27.00;41.70;;;;;;4979580;28;20038;-64
2023/07/03 10:50:31;;;;;;;5.88;4.72;;;27.00;41.70;;;;;;4980655;28;20031;-64
2023/07/03 10:53:26;;;;;;;6.22;4.32;;;27.00;41.70;;;;;;4978689;28;20039;-68
2023/07/03 10:55:57;;;;;;;5.40;4.25;;;27.00;41.80;;;;;;4962187;28;20030;-67
2023/07/03 10:58:52;;;;;;;5.10;4.30;;;27.00;41.90;;;;;;4979505;28;20473;-67
2023/07/03 11:01:30;;;;;;;5.32;4.38;;;26.90;41.80;;;;;;4979136;28;20034;-65
2023/07/03 11:04:07;;;;;;;5.77;4.50;;;27.00;41.80;;;;;;4961146;28;20035;-64
2023/07/03 11:06:53;;;;;;;5.32;4.18;;;27.00;41.90;;;;;;4981166;28;20737;-67
2023/07/03 11:09:37;;;;;;;5.22;4.43;;;27.00;42.00;;;;;;4979118;28;20126;-68
2023/07/03 11:12:21;;;;;;;5.82;4.32;;;27.00;42.00;;;;;;4977690;28;20034;-68
2023/07/03 11:15:05;;;;;;;5.28;4.00;;;27.00;42.10;;;;;;4961405;28;20442;-65
2023/07/03 11:17:46;;;;;;;6.03;3.97;;;27.00;42.10;;;;;;4978175;28;20030;-68
2023/07/03 11:20:23;;;;;;;6.13;4.32;;;27.00;42.10;;;;;;4979841;28;20128;-67
2023/07/03 11:23:09;;;;;;;5.10;3.80;;;27.00;42.00;;;;;;4976527;28;20105;-67
2023/07/03 11:25:49;;;;;;;5.47;4.00;;;27.00;42.20;;;;;;4980730;28;20030;-68
2023/07/03 11:28:26;;;;;;;5.25;4.38;;;27.10;42.10;;;;;;4979903;28;20034;-65
2023/07/03 11:30:54;;;;;;;5.45;4.22;;;27.10;42.10;;;;;;4978981;28;20026;-68
2023/07/03 11:33:21;;;;;;;4.60;3.78;;;27.10;42.10;;;;;;4962511;28;20096;-66
2023/07/03 11:36:05;;;;;;;4.93;3.97;;;27.10;42.10;;;;;;4978782;28;20046;-66
2023/07/03 11:38:34;;;;;;;5.82;3.97;;;27.10;42.30;;;;;;4977395;28;20055;-68
2023/07/03 11:41:02;;;;;;;6.13;4.63;;;27.10;42.30;;;;;;4962939;28;20052;-68
2023/07/03 11:43:41;;;;;;;5.43;4.30;;;27.10;42.20;;;;;;4979921;28;20443;-65
2023/07/03 11:46:17;;;;;;;5.57;4.03;;;27.20;42.30;;;;;;4978401;28;20483;-67
2023/07/03 11:48:46;;;;;;;6.28;4.22;;;27.20;42.30;;;;;;4977052;28;20475;-69
2023/07/03 11:51:14;;;;;;;5.10;3.95;;;27.20;42.30;;;;;;4979813;28;20481;-67
2023/07/03 11:54:05;;;;;;;6.82;4.40;;;27.20;42.40;;;;;;4978912;28;20082;-70
2023/07/03 11:56:31;;;;;;;5.50;4.10;;;27.20;42.50;;;;;;4977527;28;20600;-66
2023/07/03 11:59:17;;;;;;;5.13;4.10;;;27.20;42.40;;;;;;4968376;28;20031;-65
2023/07/03 12:01:43;;;;;;;5.55;4.10;;;27.20;42.30;;;;;;4975694;28;20402;-66
2023/07/03 12:04:08;;;;;;;5.78;4.03;;;27.20;42.40;;;;;;4978006;28;20102;-69
2023/07/03 12:06:40;;;;;;;5.25;4.30;;;27.30;42.60;;;;;;4979819;28;20539;-68
2023/07/03 12:09:21;;;;;;;5.15;3.90;;;27.20;42.70;;;;;;4976615;28;20030;-69
2023/07/03 12:12:03;;;;;;;5.65;4.00;;;27.30;42.90;;;;;;4978167;28;20035;-70
2023/07/03 12:14:44;;;;;;;4.93;3.78;;;27.30;42.90;;;;;;4980184;28;20395;-66
2023/07/03 12:17:34;;;;;;;5.50;3.83;;;27.30;42.70;;;;;;4980791;28;20222;-65
2023/07/03 12:20:10;;;;;;;5.75;3.95;;;27.30;42.70;;;;;;4982656;28;20633;-67
2023/07/03 12:22:47;;;;;;;5.32;3.90;;;27.30;42.70;;;;;;4980918;28;20058;-66
2023/07/03 12:25:22;;;;;;;5.70;4.28;;;27.30;43.00;;;;;;4981699;28;20473;-67
2023/07/03 12:27:50;;;;;;;5.10;3.70;;;27.30;42.90;;;;;;4982191;28;20015;-68
2023/07/03 12:30:29;;;;;;;5.10;3.75;;;27.30;43.00;;;;;;4967604;28;20031;-66
2023/07/03 12:32:56;;;;;;;5.32;4.35;;;27.30;43.10;;;;;;4982219;28;20038;-66
2023/07/03 12:35:26;;;;;;;5.60;3.78;;;27.30;43.10;;;;;;4981685;28;20455;-67
2023/07/03 12:37:54;;;;;;;5.47;4.00;;;27.40;43.30;;;;;;4979928;28;20062;-65
2023/07/03 12:40:22;;;;;;;5.63;3.83;;;27.30;43.30;;;;;;4981222;28;20031;-66
2023/07/03 12:42:51;;;;;;;5.80;4.03;;;27.30;43.10;;;;;;4983468;28;20045;-67
2023/07/03 12:45:26;;;;;;;6.03;4.20;;;27.30;43.20;;;;;;4985114;28;20132;-67
2023/07/03 12:48:17;;;;;;;5.65;3.90;;;27.40;43.30;;;;;;4980472;28;20027;-66
2023/07/03 12:50:55;;;;;;;4.95;3.83;;;27.40;43.20;;;;;;4983667;28;20403;-65
2023/07/03 12:53:22;;;;;;;4.97;3.83;;;27.40;43.70;;;;;;4978172;28;20027;-66
2023/07/03 12:56:06;;;;;;;5.28;3.80;;;27.40;43.50;;;;;;4978906;28;20477;-66
2023/07/03 12:58:33;;;;;;;5.15;3.65;;;27.40;43.60;;;;;;4982881;28;20022;-63